createdAt,value
2018-09-05T00:00:26.220Z,90.80
2018-09-05T00:02:30.141Z,90.90
2018-09-05T00:04:34.012Z,91.30
2018-09-05T00:06:38.314Z,91.60
2018-09-05T00:08:48.772Z,91.60
2018-09-05T00:10:52.626Z,92.00
2018-09-05T00:15:27.622Z,92.30
2018-09-05T00:17:31.586Z,93.00
2018-09-05T00:19:35.965Z,93.10
2018-09-05T00:21:39.874Z,92.80
2018-09-05T00:23:43.801Z,92.70
2018-09-05T00:25:48.116Z,93.00
2018-09-05T00:27:52.071Z,93.00
2018-09-05T00:29:56.036Z,92.90
2018-09-05T00:32:01.195Z,92.70
2018-09-05T00:34:05.106Z,92.40
2018-09-05T00:36:10.117Z,92.30
2018-09-05T00:38:14.432Z,92.10
2018-09-05T00:40:18.365Z,91.90
2018-09-05T00:42:22.260Z,91.70
2018-09-05T00:44:26.118Z,92.00
2018-09-05T00:46:30.081Z,92.50
2018-09-05T00:48:33.956Z,92.70
2018-09-05T00:50:39.185Z,93.10
2018-09-05T00:52:45.441Z,93.30
2018-09-05T00:54:49.494Z,93.20
2018-09-05T00:56:54.442Z,92.90
2018-09-05T00:58:59.059Z,92.60
2018-09-05T01:01:03.938Z,92.40
2018-09-05T01:03:11.842Z,91.40
2018-09-05T01:05:16.524Z,91.30
2018-09-05T01:07:26.043Z,91.00
2018-09-05T01:09:30.698Z,90.80
2018-09-05T01:11:34.674Z,90.60
2018-09-05T01:13:39.810Z,90.40
2018-09-05T01:15:44.010Z,90.10
2018-09-05T01:17:47.944Z,90.20
2018-09-05T01:19:53.269Z,90.50
2018-09-05T01:21:58.897Z,90.60
2018-09-05T01:24:03.506Z,90.70
2018-09-05T01:26:09.648Z,90.40
2018-09-05T01:28:15.765Z,90.00
2018-09-05T01:30:22.633Z,89.60
2018-09-05T01:32:29.974Z,89.20
2018-09-05T01:34:35.681Z,89.10
2018-09-05T01:36:39.601Z,88.80
2018-09-05T01:38:43.988Z,89.10
2018-09-05T01:40:53.282Z,90.40
2018-09-05T01:42:57.499Z,90.90
2018-09-05T01:45:02.076Z,90.70
2018-09-05T01:47:11.122Z,90.30
2018-09-05T01:49:17.385Z,90.30
2018-09-05T01:51:22.736Z,90.20
2018-09-05T01:53:27.340Z,90.20
2018-09-05T01:55:32.900Z,90.00
2018-09-05T01:57:38.497Z,90.00
2018-09-05T01:59:44.895Z,89.50
2018-09-05T02:01:51.052Z,89.00
2018-09-05T02:03:59.175Z,89.10
2018-09-05T02:06:04.716Z,88.70
2018-09-05T02:08:09.191Z,88.80
2018-09-05T02:10:14.031Z,90.00
2018-09-05T02:12:19.444Z,89.50
2018-09-05T02:14:24.835Z,89.60
2018-09-05T02:16:28.722Z,90.00
2018-09-05T02:18:33.057Z,90.30
2018-09-05T02:20:38.142Z,90.80
2018-09-05T02:22:43.918Z,91.00
2018-09-05T02:24:48.350Z,91.50
2018-09-05T02:26:54.146Z,91.80
2018-09-05T02:28:58.050Z,92.40
2018-09-05T02:31:04.246Z,92.80
2018-09-05T02:33:08.860Z,93.00
2018-09-05T02:35:14.452Z,93.20
2018-09-05T02:37:22.175Z,93.70
2018-09-05T02:39:27.922Z,95.00
2018-09-05T02:41:32.201Z,94.50
2018-09-05T02:43:41.760Z,93.90
2018-09-05T02:45:46.874Z,93.50
2018-09-05T02:47:52.497Z,93.20
2018-09-05T02:49:57.162Z,93.00
2018-09-05T02:52:01.996Z,92.90
2018-09-05T02:54:05.906Z,92.80
2018-09-05T02:56:09.821Z,92.40
2018-09-05T02:58:13.832Z,92.20
2018-09-05T03:00:17.810Z,92.10
2018-09-05T03:02:22.104Z,92.10
2018-09-05T03:04:26.110Z,91.90
2018-09-05T03:06:30.027Z,91.80
2018-09-05T03:08:34.419Z,91.70
2018-09-05T03:10:38.405Z,91.60
2018-09-05T03:12:42.282Z,91.40
2018-09-05T03:14:46.185Z,91.20
2018-09-05T03:16:50.122Z,91.10
2018-09-05T03:18:54.017Z,91.00
2018-09-05T03:20:58.316Z,91.00
2018-09-05T03:23:04.070Z,91.00
2018-09-05T03:25:09.069Z,91.20
2018-09-05T03:27:13.372Z,91.20
2018-09-05T03:29:17.369Z,91.70
2018-09-05T03:31:22.523Z,91.40
2018-09-05T03:33:26.821Z,91.50
2018-09-05T03:35:30.814Z,91.60
2018-09-05T03:37:34.950Z,91.70
2018-09-05T03:39:39.133Z,91.30
2018-09-05T03:41:42.998Z,91.10
2018-09-05T03:43:46.880Z,91.20
2018-09-05T03:45:51.344Z,91.00
2018-09-05T03:47:55.419Z,90.90
2018-09-05T03:50:01.026Z,90.80
2018-09-05T03:52:07.728Z,90.70
2018-09-05T03:54:12.947Z,90.70
2018-09-05T03:56:19.800Z,90.70
2018-09-05T03:58:24.259Z,90.70
2018-09-05T04:00:33.574Z,91.60
2018-09-05T04:02:44.239Z,91.70
2018-09-05T04:04:51.735Z,91.40
2018-09-05T04:06:56.839Z,91.40
2018-09-05T04:09:00.906Z,92.00
2018-09-05T04:11:05.927Z,91.80
2018-09-05T04:13:10.012Z,91.90
2018-09-05T04:15:17.593Z,91.90
2018-09-05T04:17:22.516Z,92.40
2018-09-05T04:19:27.486Z,92.60
2018-09-05T04:21:33.059Z,92.50
2018-09-05T04:23:43.180Z,92.60
2018-09-05T04:25:47.184Z,92.50
2018-09-05T04:27:52.506Z,92.80
2018-09-05T04:29:57.300Z,92.90
2018-09-05T04:32:05.020Z,92.90
2018-09-05T04:34:10.820Z,93.00
2018-09-05T04:36:16.615Z,92.90
2018-09-05T04:38:24.593Z,92.40
2018-09-05T04:40:29.304Z,92.30
2018-09-05T04:42:39.379Z,91.90
2018-09-05T04:44:48.636Z,91.70
2018-09-05T04:46:55.450Z,91.60
2018-09-05T04:49:05.702Z,91.40
2018-09-05T04:51:09.989Z,91.30
2018-09-05T04:53:18.509Z,91.30
2018-09-05T04:55:32.804Z,91.20
2018-09-05T04:57:39.717Z,91.10
2018-09-05T04:59:47.565Z,91.10
2018-09-05T05:01:59.759Z,91.40
2018-09-05T05:04:19.443Z,91.80
2018-09-05T05:06:25.064Z,92.10
2018-09-05T05:08:34.218Z,92.10
2018-09-05T05:10:39.308Z,92.20
2018-09-05T05:12:45.883Z,92.60
2018-09-05T05:14:50.264Z,92.80
2018-09-05T05:16:58.024Z,93.70
2018-09-05T05:19:05.869Z,94.00
2018-09-05T05:21:10.873Z,94.10
2018-09-05T05:23:15.104Z,94.40
2018-09-05T05:25:20.224Z,94.70
2018-09-05T05:27:26.192Z,94.80
2018-09-05T05:29:42.011Z,94.90
2018-09-05T05:32:33.897Z,94.80
2018-09-05T05:37:59.289Z,94.70
2018-09-05T05:40:43.258Z,94.60
2018-09-05T05:42:47.287Z,95.00
2018-09-05T05:44:51.234Z,95.00
2018-09-05T05:46:59.428Z,95.30
2018-09-05T05:49:06.114Z,95.00
2018-09-05T05:51:10.200Z,95.00
2018-09-05T05:53:14.701Z,95.00
2018-09-05T05:55:18.806Z,94.80
2018-09-05T05:57:23.313Z,94.40
2018-09-05T05:59:27.529Z,94.20
2018-09-05T06:01:40.738Z,94.10
2018-09-05T06:03:45.902Z,94.00
2018-09-05T06:05:50.282Z,93.80
2018-09-05T06:07:54.805Z,93.40
2018-09-05T06:09:58.811Z,93.30
2018-09-05T06:12:04.995Z,92.80
2018-09-05T06:14:14.565Z,92.70
2018-09-05T06:16:23.421Z,92.80
2018-09-05T06:18:28.137Z,91.90
2018-09-05T06:20:33.026Z,91.70
2018-09-05T06:22:37.222Z,91.80
2018-09-05T06:24:41.670Z,91.70
2018-09-05T06:26:45.622Z,91.80
2018-09-05T06:28:49.713Z,91.50
2018-09-05T06:30:55.909Z,91.80
2018-09-05T06:33:00.687Z,91.60
2018-09-05T06:35:07.418Z,90.90
2018-09-05T06:37:18.359Z,90.30
2018-09-05T06:39:22.369Z,90.00
2018-09-05T06:41:26.339Z,89.80
2018-09-05T06:43:31.712Z,88.70
2018-09-05T06:45:36.187Z,87.40
2018-09-05T06:47:41.333Z,85.90
2018-09-05T06:49:46.877Z,85.50
2018-09-05T06:51:51.738Z,84.40
2018-09-05T06:53:55.672Z,84.40
2018-09-05T06:56:06.175Z,83.40
2018-09-05T06:58:18.791Z,83.10
2018-09-05T07:00:27.368Z,81.20
2018-09-05T07:02:34.374Z,81.10
2018-09-05T07:04:48.557Z,80.10
2018-09-05T07:06:52.458Z,79.80
2018-09-05T07:08:57.418Z,78.60
2018-09-05T07:11:01.370Z,78.20
2018-09-05T07:13:08.085Z,78.40
2018-09-05T07:15:14.253Z,77.70
2018-09-05T07:17:19.742Z,77.60
2018-09-05T07:19:24.411Z,77.30
2018-09-05T07:21:29.319Z,77.20
2018-09-05T07:23:33.297Z,77.40
2018-09-05T07:25:37.300Z,77.40
2018-09-05T07:27:42.602Z,75.90
2018-09-05T07:29:46.497Z,76.40
2018-09-05T07:31:51.254Z,76.50
2018-09-05T07:33:56.295Z,76.50
2018-09-05T07:36:00.319Z,76.40
2018-09-05T07:38:04.963Z,75.70
2018-09-05T07:40:12.968Z,75.00
2018-09-05T07:42:17.142Z,75.70
2018-09-05T07:44:28.009Z,76.30
2018-09-05T07:46:34.281Z,76.70
2018-09-05T07:48:39.253Z,77.40
2018-09-05T07:50:43.215Z,77.30
2018-09-05T07:52:47.555Z,76.60
2018-09-05T07:54:54.011Z,76.00
2018-09-05T07:56:58.984Z,76.10
2018-09-05T07:59:16.830Z,75.10
2018-09-05T08:01:22.316Z,75.40
2018-09-05T08:03:33.376Z,75.00
2018-09-05T08:05:38.661Z,74.70
2018-09-05T08:07:42.873Z,74.30
2018-09-05T08:09:46.891Z,74.80
2018-09-05T08:11:51.520Z,74.30
2018-09-05T08:13:55.618Z,73.20
2018-09-05T08:15:59.581Z,72.90
2018-09-05T08:18:05.347Z,71.40
2018-09-05T08:20:09.416Z,71.00
2018-09-05T08:22:18.765Z,71.90
2018-09-05T08:24:23.647Z,72.50
2018-09-05T08:26:30.249Z,71.20
2018-09-05T08:28:35.293Z,70.80
2018-09-05T08:30:41.701Z,69.50
2018-09-05T08:32:45.931Z,68.70
2018-09-05T08:34:50.180Z,68.60
2018-09-05T08:36:57.072Z,68.40
2018-09-05T08:39:00.864Z,68.10
2018-09-05T08:41:09.745Z,68.40
2018-09-05T08:43:14.088Z,68.40
2018-09-05T08:45:18.631Z,67.60
2018-09-05T08:47:22.729Z,66.80
2018-09-05T08:49:28.410Z,65.30
2018-09-05T08:51:32.381Z,63.90
2018-09-05T08:53:36.429Z,62.50
2018-09-05T08:55:41.307Z,62.40
2018-09-05T08:57:45.245Z,62.90
2018-09-05T08:59:50.361Z,61.00
2018-09-05T09:01:54.883Z,61.50
2018-09-05T09:03:58.798Z,62.40
2018-09-05T09:06:03.301Z,61.70
2018-09-05T09:08:08.410Z,61.90
2018-09-05T09:10:12.538Z,60.40
2018-09-05T09:12:18.365Z,60.10
2018-09-05T09:14:25.009Z,60.40
2018-09-05T09:16:29.022Z,59.70
2018-09-05T09:18:33.226Z,59.30
2018-09-05T09:20:37.775Z,58.90
2018-09-05T09:22:41.699Z,58.70
2018-09-05T09:24:45.713Z,59.20
2018-09-05T09:26:49.899Z,59.70
2018-09-05T09:28:53.951Z,60.00
2018-09-05T09:30:57.869Z,59.60
2018-09-05T09:33:02.803Z,58.10
2018-09-05T09:35:06.814Z,57.40
2018-09-05T09:37:10.794Z,56.80
2018-09-05T09:39:17.221Z,56.10
2018-09-05T09:41:21.161Z,55.50
2018-09-05T09:43:25.053Z,54.70
2018-09-05T09:45:29.218Z,55.30
2018-09-05T09:47:33.310Z,54.30
2018-09-05T09:49:37.265Z,53.90
2018-09-05T09:51:41.395Z,54.40
2018-09-05T09:53:45.400Z,53.20
2018-09-05T09:55:50.306Z,53.50
2018-09-05T09:57:55.343Z,52.70
2018-09-05T09:59:59.901Z,52.00
2018-09-05T10:02:09.100Z,51.90
2018-09-05T10:04:19.299Z,51.00
2018-09-05T10:06:28.970Z,49.90
2018-09-05T10:08:39.122Z,49.40
2018-09-05T10:10:48.858Z,48.70
2018-09-05T10:12:59.607Z,48.90
2018-09-05T10:15:09.308Z,48.40
2018-09-05T10:17:22.752Z,47.50
2018-09-05T10:19:26.840Z,46.90
2018-09-05T10:21:30.803Z,46.90
2018-09-05T10:23:35.228Z,47.20
2018-09-05T10:25:39.235Z,46.70
2018-09-05T10:27:43.917Z,46.30
2018-09-05T10:29:48.291Z,46.50
2018-09-05T10:31:53.099Z,46.40
2018-09-05T10:33:57.755Z,46.20
2018-09-05T10:36:03.396Z,45.10
2018-09-05T10:38:09.568Z,44.00
2018-09-05T10:40:13.969Z,43.60
2018-09-05T10:42:18.874Z,43.10
2018-09-05T10:44:24.351Z,42.40
2018-09-05T10:46:28.279Z,42.20
2018-09-05T10:48:35.653Z,42.20
2018-09-05T10:50:39.662Z,42.70
2018-09-05T10:52:43.602Z,42.40
2018-09-05T10:54:47.919Z,42.00
2018-09-05T10:56:51.948Z,42.00
2018-09-05T10:58:57.606Z,41.60
2018-09-05T11:01:02.312Z,41.10
2018-09-05T11:03:07.028Z,41.20
2018-09-05T11:05:12.047Z,40.70
2018-09-05T11:07:16.817Z,40.60
2018-09-05T11:09:21.053Z,39.90
2018-09-05T11:11:26.272Z,38.20
2018-09-05T11:13:30.808Z,37.00
2018-09-05T11:15:34.938Z,37.80
2018-09-05T11:17:40.592Z,38.40
2018-09-05T11:19:45.884Z,38.40
2018-09-05T11:21:50.244Z,37.60
2018-09-05T11:23:54.462Z,37.90
2018-09-05T11:25:59.369Z,37.90
2018-09-05T11:28:04.196Z,38.10
2018-09-05T11:30:12.526Z,38.50
2018-09-05T11:32:16.569Z,38.90
2018-09-05T11:34:20.565Z,38.30
2018-09-05T11:36:27.858Z,37.10
2018-09-05T11:38:32.233Z,36.40
2018-09-05T11:40:36.434Z,36.20
2018-09-05T11:42:40.682Z,36.20
2018-09-05T11:44:45.770Z,35.40
2018-09-05T11:46:49.861Z,35.60
2018-09-05T11:48:53.784Z,34.40
2018-09-05T11:51:00.375Z,34.80
2018-09-05T11:53:05.284Z,34.40
2018-09-05T11:55:10.803Z,34.00
2018-09-05T11:57:15.011Z,33.60
2018-09-05T11:59:20.925Z,32.60
2018-09-05T12:01:39.189Z,31.30
2018-09-05T12:03:45.394Z,30.80
2018-09-05T12:05:50.235Z,30.70
2018-09-05T12:07:54.412Z,30.90
2018-09-05T12:09:59.697Z,30.60
2018-09-05T12:12:03.749Z,30.50
2018-09-05T12:14:08.403Z,30.50
2018-09-05T12:16:13.810Z,30.30
2018-09-05T12:18:17.886Z,30.00
2018-09-05T12:20:24.315Z,29.90
2018-09-05T12:22:28.659Z,30.60
2018-09-05T12:24:32.587Z,29.70
2018-09-05T12:26:37.374Z,29.60
2018-09-05T12:28:43.761Z,29.90
2018-09-05T12:30:49.825Z,30.10
2018-09-05T12:32:54.984Z,29.60
2018-09-05T12:34:59.301Z,30.30
2018-09-05T12:37:03.526Z,30.80
2018-09-05T12:39:10.315Z,30.60
2018-09-05T12:41:15.625Z,30.60
2018-09-05T12:43:20.513Z,30.60
2018-09-05T12:45:24.591Z,30.00
2018-09-05T12:47:36.225Z,29.40
2018-09-05T12:49:41.108Z,29.20
2018-09-05T12:51:48.087Z,29.00
2018-09-05T12:53:52.526Z,28.60
2018-09-05T12:55:57.424Z,28.50
2018-09-05T12:58:02.712Z,28.20
2018-09-05T13:00:06.930Z,27.90
2018-09-05T13:02:10.904Z,27.60
2018-09-05T13:04:17.405Z,27.40
2018-09-05T13:06:21.864Z,27.20
2018-09-05T13:08:27.230Z,26.90
2018-09-05T13:10:32.133Z,27.60
2018-09-05T13:12:36.479Z,27.80
2018-09-05T13:14:41.440Z,27.80
2018-09-05T13:16:46.521Z,27.60
2018-09-05T13:18:50.838Z,27.70
2018-09-05T13:20:54.913Z,27.60
2018-09-05T13:22:59.887Z,27.90
2018-09-05T13:25:05.031Z,28.00
2018-09-05T13:27:10.094Z,27.60
2018-09-05T13:29:15.348Z,28.00
2018-09-05T13:31:21.225Z,28.20
2018-09-05T13:33:27.219Z,28.70
2018-09-05T13:35:32.967Z,28.90
2018-09-05T13:37:38.356Z,28.90
2018-09-05T13:39:42.422Z,29.00
2018-09-05T13:41:46.492Z,29.10
2018-09-05T13:43:50.512Z,28.90
2018-09-05T13:50:33.160Z,28.10
2018-09-05T13:52:38.825Z,27.90
2018-09-05T13:54:43.531Z,27.80
2018-09-05T13:56:48.039Z,27.50
2018-09-05T13:58:55.075Z,27.30
2018-09-05T14:01:00.238Z,26.90
2018-09-05T14:03:06.228Z,26.70
2018-09-05T14:05:10.129Z,26.80
2018-09-05T14:07:14.589Z,26.90
2018-09-05T14:09:18.541Z,27.00
2018-09-05T14:11:23.472Z,26.80
2018-09-05T14:13:27.870Z,27.00
2018-09-05T14:15:32.325Z,27.70
2018-09-05T14:17:38.392Z,27.80
2018-09-05T14:19:42.776Z,28.10
2018-09-05T14:21:49.620Z,27.60
2018-09-05T14:23:55.687Z,27.70
2018-09-05T14:26:02.245Z,27.40
2018-09-05T14:28:08.808Z,27.30
2018-09-05T14:30:16.052Z,27.00
2018-09-05T14:32:20.278Z,26.60
2018-09-05T14:34:26.252Z,26.20
2018-09-05T14:36:35.176Z,25.90
2018-09-05T14:38:39.321Z,25.00
2018-09-05T14:40:44.468Z,25.00
2018-09-05T14:42:48.392Z,24.50
2018-09-05T14:44:54.660Z,24.50
2018-09-05T14:47:00.624Z,24.80
2018-09-05T14:49:07.552Z,24.60
2018-09-05T14:51:11.736Z,24.50
2018-09-05T14:53:17.705Z,24.50
2018-09-05T14:55:27.425Z,24.80
2018-09-05T14:57:32.884Z,24.50
2018-09-05T14:59:40.675Z,24.80
2018-09-05T15:01:45.302Z,25.00
2018-09-05T15:03:49.594Z,25.10
2018-09-05T15:05:56.110Z,24.80
2018-09-05T15:08:01.429Z,24.90
2018-09-05T15:10:09.196Z,25.10
2018-09-05T15:12:13.912Z,24.90
2018-09-05T15:14:21.328Z,25.00
2018-09-05T15:16:32.102Z,25.00
2018-09-05T15:18:36.621Z,25.60
2018-09-05T15:20:41.364Z,25.40
2018-09-05T15:22:48.596Z,25.10
2018-09-05T15:24:56.061Z,25.40
2018-09-05T15:27:01.200Z,25.10
2018-09-05T15:29:10.227Z,24.80
2018-09-05T15:31:14.795Z,24.60
2018-09-05T15:33:18.706Z,23.10
2018-09-05T15:35:24.286Z,22.30
2018-09-05T15:37:28.260Z,22.70
2018-09-05T15:39:33.717Z,23.10
2018-09-05T15:41:41.420Z,22.80
2018-09-05T15:43:48.083Z,23.00
2018-09-05T15:45:56.553Z,23.00
2018-09-05T15:48:04.067Z,23.50
2018-09-05T15:50:10.118Z,23.60
2018-09-05T15:52:14.992Z,23.90
2018-09-05T15:54:20.936Z,24.10
2018-09-05T15:56:39.015Z,24.90
2018-09-05T15:58:46.405Z,24.70
2018-09-05T16:00:51.860Z,24.50
2018-09-05T16:02:56.787Z,24.40
2018-09-05T16:05:03.334Z,24.30
2018-09-05T16:07:10.176Z,24.30
2018-09-05T16:09:16.258Z,24.80
2018-09-05T16:11:22.799Z,25.00
2018-09-05T16:13:26.739Z,25.10
2018-09-05T16:15:32.654Z,25.60
2018-09-05T16:17:38.801Z,25.50
2018-09-05T16:19:45.177Z,25.10
2018-09-05T16:21:49.478Z,25.30
2018-09-05T16:23:54.717Z,25.70
2018-09-05T16:25:58.621Z,25.80
2018-09-05T16:28:02.569Z,26.10
2018-09-05T16:30:08.075Z,26.00
2018-09-05T16:32:12.117Z,26.20
2018-09-05T16:34:16.776Z,26.60
2018-09-05T16:36:24.079Z,26.80
2018-09-05T16:38:28.464Z,26.70
2018-09-05T16:40:32.331Z,26.90
2018-09-05T16:42:37.329Z,27.10
2018-09-05T16:47:40.985Z,27.00
2018-09-05T16:49:46.156Z,26.70
2018-09-05T16:51:53.853Z,27.00
2018-09-05T16:54:03.267Z,27.10
2018-09-05T16:56:10.468Z,27.40
2018-09-05T16:58:19.556Z,27.90
2018-09-05T17:00:27.348Z,28.30
2018-09-05T17:02:34.087Z,28.70
2018-09-05T17:04:39.217Z,29.20
2018-09-05T17:06:46.428Z,29.60
2018-09-05T17:08:51.334Z,30.50
2018-09-05T17:11:00.429Z,31.10
2018-09-05T17:13:04.589Z,31.60
2018-09-05T17:15:13.308Z,32.40
2018-09-05T17:17:17.245Z,33.10
2018-09-05T17:19:23.966Z,33.50
2018-09-05T17:21:30.169Z,33.70
2018-09-05T17:23:35.515Z,33.90
2018-09-05T17:25:55.661Z,34.00
2018-09-05T17:28:01.383Z,34.20
2018-09-05T17:30:09.576Z,34.80
2018-09-05T17:32:16.395Z,35.00
2018-09-05T17:34:20.327Z,35.20
2018-09-05T17:36:27.796Z,36.40
2018-09-05T17:38:37.597Z,36.10
2018-09-05T17:40:46.756Z,36.10
2018-09-05T17:42:51.564Z,36.50
2018-09-05T17:45:01.665Z,36.80
2018-09-05T17:47:09.595Z,37.00
2018-09-05T17:49:15.757Z,37.10
2018-09-05T17:51:22.018Z,37.10
2018-09-05T17:53:29.265Z,37.20
2018-09-05T17:55:36.647Z,37.50
2018-09-05T17:57:42.742Z,37.40
2018-09-05T17:59:48.696Z,37.70
2018-09-05T18:01:53.473Z,38.00
2018-09-05T18:04:02.069Z,38.50
2018-09-05T18:06:10.198Z,39.30
2018-09-05T18:08:17.361Z,40.00
2018-09-05T18:10:23.611Z,40.60
2018-09-05T18:12:31.190Z,41.10
2018-09-05T18:14:39.094Z,41.90
2018-09-05T18:16:47.815Z,42.60
2018-09-05T18:18:53.825Z,43.30
2018-09-05T18:20:58.294Z,43.90
2018-09-05T18:23:04.470Z,44.50
2018-09-05T18:25:10.331Z,44.80
2018-09-05T18:27:19.652Z,45.20
2018-09-05T18:29:24.420Z,45.50
2018-09-05T18:31:30.804Z,45.90
2018-09-05T18:33:37.380Z,46.20
2018-09-05T18:35:42.127Z,46.50
2018-09-05T18:37:50.850Z,46.50
2018-09-05T18:40:00.778Z,46.90
2018-09-05T18:42:06.178Z,47.20
2018-09-05T18:44:13.476Z,47.40
2018-09-05T18:46:19.298Z,47.80
2018-09-05T18:48:24.118Z,48.60
2018-09-05T18:50:29.762Z,49.10
2018-09-05T18:52:37.391Z,49.60
2018-09-05T18:54:48.060Z,49.70
2018-09-05T18:57:02.227Z,49.90
2018-09-05T18:59:11.275Z,50.00
2018-09-05T19:01:16.239Z,49.90
2018-09-05T19:03:33.176Z,50.20
2018-09-05T19:05:53.469Z,50.30
2018-09-05T19:08:03.960Z,50.00
2018-09-05T19:10:12.414Z,49.90
2018-09-05T19:12:20.339Z,50.00
2018-09-05T19:14:24.820Z,49.90
2018-09-05T19:16:34.234Z,50.20
2018-09-05T19:18:41.655Z,50.30
2018-09-05T19:20:51.316Z,50.70
2018-09-05T19:22:59.172Z,51.00
2018-09-05T19:25:08.874Z,51.20
2018-09-05T19:27:18.441Z,51.60
2018-09-05T19:29:30.260Z,52.60
2018-09-05T19:31:40.642Z,51.90
2018-09-05T19:33:52.243Z,52.10
2018-09-05T19:35:57.531Z,52.30
2018-09-05T19:38:01.908Z,52.30
2018-09-05T19:40:10.044Z,52.40
2018-09-05T19:42:18.471Z,52.90
2018-09-05T19:44:28.607Z,53.00
2018-09-05T19:47:01.065Z,53.10
2018-09-05T19:49:15.554Z,53.40
2018-09-05T19:51:53.554Z,53.40
2018-09-05T19:54:03.266Z,53.30
2018-09-05T19:56:28.479Z,53.30
2018-09-05T19:58:42.647Z,53.40
2018-09-05T20:01:14.771Z,53.40
2018-09-05T20:03:43.751Z,53.60
2018-09-05T20:06:00.700Z,53.40
2018-09-05T20:08:17.952Z,53.40
2018-09-05T20:10:49.695Z,53.40
2018-09-05T20:13:03.631Z,53.40
2018-09-05T20:15:42.198Z,53.70
2018-09-05T20:17:54.639Z,53.80
2018-09-05T20:20:12.223Z,53.60
2018-09-05T20:22:20.969Z,53.30
2018-09-05T20:24:28.496Z,53.20
2018-09-05T20:26:34.685Z,53.00
2018-09-05T20:28:45.648Z,52.70
2018-09-05T20:30:55.747Z,52.80
2018-09-05T20:33:07.269Z,52.70
2018-09-05T20:35:20.652Z,52.60
2018-09-05T20:37:27.742Z,52.70
2018-09-05T20:39:33.877Z,52.80
2018-09-05T20:41:44.500Z,53.00
2018-09-05T20:43:52.364Z,53.10
2018-09-05T20:46:08.444Z,53.20
2018-09-05T20:48:23.768Z,53.70
2018-09-05T20:52:45.448Z,54.10
2018-09-05T20:54:54.859Z,54.40
2018-09-05T20:57:03.242Z,54.90
2018-09-05T20:59:11.420Z,55.20
2018-09-05T21:01:21.403Z,55.50
2018-09-05T21:03:30.605Z,55.70
2018-09-05T21:05:41.381Z,55.90
2018-09-05T21:07:53.239Z,56.10
2018-09-05T21:10:00.247Z,56.40
2018-09-05T21:12:12.601Z,56.70
2018-09-05T21:14:19.736Z,57.00
2018-09-05T21:16:31.244Z,57.40
2018-09-05T21:20:52.994Z,57.60
2018-09-05T21:23:02.267Z,57.70
2018-09-05T21:25:11.962Z,57.80
2018-09-05T21:27:24.373Z,58.30
2018-09-05T21:29:33.525Z,58.50
2018-09-05T21:31:45.262Z,58.60
2018-09-05T21:33:57.434Z,58.70
2018-09-05T21:36:21.283Z,58.50
2018-09-05T21:38:38.209Z,58.60
2018-09-05T21:40:45.363Z,58.10
2018-09-05T21:42:59.593Z,58.20
2018-09-05T21:45:27.080Z,58.60
2018-09-05T21:47:38.568Z,58.60
2018-09-05T21:49:47.033Z,58.60
2018-09-05T21:51:57.150Z,58.90
2018-09-05T21:54:02.839Z,59.20
2018-09-05T21:56:11.366Z,59.30
2018-09-05T21:58:18.052Z,59.30
2018-09-05T22:00:46.712Z,59.40
2018-09-05T22:02:57.676Z,60.40
2018-09-05T22:05:04.893Z,60.30
2018-09-05T22:07:11.883Z,60.60
2018-09-05T22:09:19.251Z,61.00
2018-09-05T22:11:29.054Z,61.30
2018-09-05T22:13:34.332Z,61.70
2018-09-05T22:15:47.539Z,62.10
2018-09-05T22:17:56.581Z,62.20
2018-09-05T22:20:02.010Z,62.30
2018-09-05T22:22:08.867Z,62.30
2018-09-05T22:24:16.907Z,61.90
2018-09-05T22:26:28.084Z,61.90
2018-09-05T22:28:34.257Z,62.20
2018-09-05T22:30:48.771Z,62.20
2018-09-05T22:32:58.011Z,62.30
2018-09-05T22:35:07.868Z,62.60
2018-09-05T22:37:18.763Z,62.80
2018-09-05T22:39:24.709Z,62.50
2018-09-05T22:41:29.301Z,62.50
2018-09-05T22:43:45.399Z,62.40
2018-09-05T22:46:00.523Z,62.50
2018-09-05T22:48:48.135Z,62.80
2018-09-05T22:53:09.495Z,63.10
2018-09-05T22:55:34.747Z,62.70
2018-09-05T22:59:57.835Z,62.30
2018-09-05T23:02:15.837Z,62.30
2018-09-05T23:04:29.682Z,62.90
2018-09-05T23:08:43.610Z,62.60
2018-09-05T23:10:59.504Z,62.40
2018-09-05T23:13:14.940Z,61.90
2018-09-05T23:15:37.416Z,62.10
2018-09-05T23:18:51.235Z,62.70
2018-09-05T23:21:21.083Z,63.60
2018-09-05T23:23:38.830Z,64.30
2018-09-05T23:25:43.309Z,64.30
2018-09-05T23:27:49.238Z,65.10
2018-09-05T23:29:53.719Z,65.90
2018-09-05T23:31:58.330Z,66.50
2018-09-05T23:34:05.194Z,67.50
2018-09-05T23:36:10.281Z,68.50
2018-09-05T23:38:16.333Z,68.90
2018-09-05T23:40:22.655Z,69.40
2018-09-05T23:42:27.842Z,69.60
2018-09-05T23:44:32.483Z,70.20
2018-09-05T23:46:38.004Z,70.20
2018-09-05T23:48:42.683Z,70.30
2018-09-05T23:50:46.613Z,70.50
2018-09-05T23:52:51.187Z,71.30
2018-09-05T23:54:56.683Z,72.00
2018-09-05T23:57:01.972Z,72.40
2018-09-05T23:59:07.589Z,72.40
